Weather at San Juan de los Cayos Airport

Public forecast

Using degrees Celsius for public forecast. Weather courtesy of forecast.io.

Closest aviation weather report (METAR) to San Juan de los Cayos Airport

Report is more than 6 hours old.

Closest report is General Bartolome Salom International Airport, 46.5 nm (86.1 km) SSE. Retrieved 2019/12/24 13:00 UTC (2 years ago):

SVPC 241300Z 00000KT 9999 SCT020 XX/XX Q1011

Closest aviation forecast (TAF) to San Juan de los Cayos Airport

Closest forecast is Flamingo International Airport, 58.1 nm (107.6 km) N. Retrieved 2021-07-31 00:27 UTC (5 hours ago):

TAF TNCB 302227Z 3100/0106 09017KT 9999 SCT018